Caribbean Galaxy — 3EZV4 — position and weather

sailwx.info

Track history (hours):
 
Tides and Currents Weather Stations Pressure Air Temp Water Temp Dewpoint Dewpoint Depression Visibility Wind Speed Wind Dir Waves Ship Positions

Caribbean Galaxy

Last reported at 2016-Nov-16 06:21 UTC. Time now 2016-Dec-05 14:32 UTC.
Position S 09°25' E 146°43'.
Warning: this ship's position is 19 days out of date.

Length 246 m; draft 8.2 m.

Type: Ship. MMSI: 357449000.

Date/timePositionNaut miles runAvg speedWind from/ knotsBaromVisibWave heightAir tempDewpointWater temp
2016-Nov-16 06:21S 09°25' E 146°43'1910.5
2016-Nov-16 04:33S 09°34' E 147°00'8 8.3
2016-Nov-16 03:33S 09°32' E 147°08'5 4.7
2016-Nov-16 02:33S 09°27' E 147°07'0 0.0
2016-Nov-16 01:31S 09°27' E 147°07'0 0.0
2016-Nov-15 21:31S 09°27' E 147°07'0 0.0
2016-Nov-15 19:31S 09°27' E 147°07'0 0.0
2016-Nov-15 18:31S 09°27' E 147°07'0 0.0
2016-Nov-15 13:31S 09°27' E 147°07'0 0.0
2016-Nov-15 12:31S 09°27' E 147°07'0 0.0
2016-Nov-15 11:25S 09°27' E 147°07'0 0.0
2016-Nov-15 10:31S 09°27' E 147°07'0 0.0
2016-Nov-15 07:31S 09°27' E 147°07'0 0.0
2016-Nov-15 06:22S 09°27' E 147°07'0 0.0
2016-Nov-15 05:52S 09°27' E 147°07'0 0.0
2016-Nov-15 03:31S 09°27' E 147°07'0 0.0
2016-Nov-15 02:31S 09°27' E 147°07'0 0.0
2016-Nov-15 00:31S 09°27' E 147°07'0 0.0
2016-Nov-14 23:43S 09°27' E 147°07'0 0.0
2016-Nov-14 19:31S 09°27' E 147°07'0 0.0
2016-Nov-14 17:31S 09°27' E 147°07'0 0.0
2016-Nov-14 16:31S 09°27' E 147°07'0 0.0
2016-Nov-14 15:28S 09°27' E 147°07'0 0.0
2016-Nov-14 11:28S 09°27' E 147°07'0 0.0
2016-Nov-14 08:31S 09°27' E 147°07'1 0.2
2016-Nov-14 05:27S 09°27' E 147°08'0 0.0
2016-Nov-14 00:21S 09°27' E 147°08'0 0.1
2016-Nov-13 23:33S 09°27' E 147°08'0 0.0
2016-Nov-13 22:33S 09°27' E 147°08'0 0.0
2016-Nov-13 19:33S 09°27' E 147°08'0 0.1
2016-Nov-13 18:33S 09°27' E 147°08'0 0.1
2016-Nov-13 17:33S 09°27' E 147°08'0 0.0
2016-Nov-13 15:33S 09°27' E 147°08'0 0.0
2016-Nov-13 13:27S 09°27' E 147°08'0 0.0
2016-Nov-13 10:33S 09°27' E 147°08'0 0.0
2016-Nov-13 08:33S 09°27' E 147°08'0 0.0
2016-Nov-13 05:33S 09°27' E 147°08'0 0.0
2016-Nov-13 03:33S 09°27' E 147°08'6 1.6
2016-Nov-12 23:33S 09°33' E 147°07'6 3.0
2016-Nov-12 21:33S 09°34' E 147°01'2311.6
2016-Nov-12 19:33S 09°24' E 146°40'  
Track history (hours):
 
Tides and Currents Weather Stations Pressure Air Temp Water Temp Dewpoint Dewpoint Depression Visibility Wind Speed Wind Dir Waves Ship Positions

Caribbean Galaxy

Last reported at 2016-Nov-16 06:21 UTC. Time now 2016-Dec-05 14:32 UTC.
Position S 09°25' E 146°43'.
Warning: this ship's position is 19 days out of date.

Length 246 m; draft 8.2 m.

Type: Ship. MMSI: 357449000.

Date/timePositionNaut miles runAvg speedWind from/ knotsBaromVisibWave heightAir tempDewpointWater temp
2016-Nov-16 06:21S 09°25' E 146°43'1910.5
2016-Nov-16 04:33S 09°34' E 147°00'8 8.3
2016-Nov-16 03:33S 09°32' E 147°08'5 4.7
2016-Nov-16 02:33S 09°27' E 147°07'0 0.0
2016-Nov-16 01:31S 09°27' E 147°07'0 0.0
2016-Nov-15 21:31S 09°27' E 147°07'0 0.0
2016-Nov-15 19:31S 09°27' E 147°07'0 0.0
2016-Nov-15 18:31S 09°27' E 147°07'0 0.0
2016-Nov-15 13:31S 09°27' E 147°07'0 0.0
2016-Nov-15 12:31S 09°27' E 147°07'0 0.0
2016-Nov-15 11:25S 09°27' E 147°07'0 0.0
2016-Nov-15 10:31S 09°27' E 147°07'0 0.0
2016-Nov-15 07:31S 09°27' E 147°07'0 0.0
2016-Nov-15 06:22S 09°27' E 147°07'0 0.0
2016-Nov-15 05:52S 09°27' E 147°07'0 0.0
2016-Nov-15 03:31S 09°27' E 147°07'0 0.0
2016-Nov-15 02:31S 09°27' E 147°07'0 0.0
2016-Nov-15 00:31S 09°27' E 147°07'0 0.0
2016-Nov-14 23:43S 09°27' E 147°07'0 0.0
2016-Nov-14 19:31S 09°27' E 147°07'0 0.0
2016-Nov-14 17:31S 09°27' E 147°07'0 0.0
2016-Nov-14 16:31S 09°27' E 147°07'0 0.0
2016-Nov-14 15:28S 09°27' E 147°07'0 0.0
2016-Nov-14 11:28S 09°27' E 147°07'0 0.0
2016-Nov-14 08:31S 09°27' E 147°07'1 0.2
2016-Nov-14 05:27S 09°27' E 147°08'0 0.0
2016-Nov-14 00:21S 09°27' E 147°08'0 0.1
2016-Nov-13 23:33S 09°27' E 147°08'0 0.0
2016-Nov-13 22:33S 09°27' E 147°08'0 0.0
2016-Nov-13 19:33S 09°27' E 147°08'0 0.1
2016-Nov-13 18:33S 09°27' E 147°08'0 0.1
2016-Nov-13 17:33S 09°27' E 147°08'0 0.0
2016-Nov-13 15:33S 09°27' E 147°08'0 0.0
2016-Nov-13 13:27S 09°27' E 147°08'0 0.0
2016-Nov-13 10:33S 09°27' E 147°08'0 0.0
2016-Nov-13 08:33S 09°27' E 147°08'0 0.0
2016-Nov-13 05:33S 09°27' E 147°08'0 0.0
2016-Nov-13 03:33S 09°27' E 147°08'6 1.6
2016-Nov-12 23:33S 09°33' E 147°07'6 3.0
2016-Nov-12 21:33S 09°34' E 147°01'2311.6
2016-Nov-12 19:33S 09°24' E 146°40'  

Dump ship's entire track history